Terminal Aerodrome Forecast
Issued by NWS

Home | Current Version | Previous Version | Text Only | Print | Product List | Glossary On
Versions: 1 2 3 4 5 6 7 8 9 10 11 12
692
FTUS45 KRIW 261131
TAFCPR
TAF
KCPR 261131Z 2612/2712 26006KT P6SM SKC
     FM261800 31007KT P6SM SKC
     FM262200 01009KT P6SM SCT100
     FM270100 05012KT P6SM VCSH SCT100 BKN150
     FM270700 06008KT P6SM VCSH SCT070 BKN150=

USA.gov is the U.S. government's official web portal to all federal, state and local government web resources and services.